Data for 10/05/2018

Time Sea-Level Adjusted Pressure Absolute Pressure Temperature Relative Humidity Dew Point   
(mb) (inHg) (mb) (inHg) (C) (F) (%) (C) (F)
00:05 1016 30 846 24.98 1.1 34.1 91 -0.1 31.8
00:10 1016 30 846 24.98 1.3 34.3 90 -0.1 31.7
00:15 1016 30 846 24.98 1.4 34.5 89 -0.2 31.7
00:20 1017 30.03 846 24.98 1.4 34.6 89 -0.2 31.7
00:25 1017 30.03 846 24.98 1.5 34.7 89 -0.2 31.7
00:30 1017 30.03 846 24.98 1.6 34.9 88 -0.2 31.6
00:35 1017 30.03 846 24.98 1.6 35 88 -0.2 31.6
00:40 1017 30.03 846 24.98 1.7 35 87 -0.2 31.6
00:45 1017 30.03 846 24.98 1.7 35 87 -0.2 31.6
00:50 1017 30.03 846 24.98 1.7 35 87 -0.2 31.6
00:55 1017 30.03 846 24.98 1.7 35.1 87 -0.2 31.6
01:00 1017 30.03 846 24.98 1.8 35.2 87 -0.2 31.6
01:05 1017 30.03 846 24.98 1.8 35.3 87 -0.1 31.7
01:10 1017 30.03 846 24.98 1.9 35.4 86 -0.3 31.5
01:15 1017 30.03 846 24.98 2 35.6 84 -0.4 31.3
01:20 1017 30.03 846 24.98 2.1 35.8 83 -0.5 31.2
01:25 1017 30.03 846 24.98 2.1 35.7 84 -0.4 31.2
01:30 1017 30.03 846 24.98 2.1 35.7 83 -0.5 31.1
01:35 1017 30.03 846 24.98 2.1 35.8 83 -0.5 31.2
01:40 1017 30.03 846 24.98 2.1 35.8 84 -0.4 31.3
01:45 1017 30.03 846 24.98 2.1 35.7 84 -0.4 31.3
01:50 1017 30.03 846 24.98 2 35.7 84 -0.4 31.3
01:55 1017 30.03 846 24.98 2 35.6 84 -0.4 31.2
02:00 1017 30.03 846 24.98 2 35.6 85 -0.3 31.5
02:05 1017 30.03 846 24.98 1.9 35.5 86 -0.1 31.7
02:10 1017 30.03 847 25.01 1.7 35.1 87 -0.2 31.7
02:15 1017 30.03 847 25.01 1.6 34.9 88 -0.2 31.6
02:20 1017 30.03 847 25.01 1.5 34.7 89 -0.2 31.7
02:25 1017 30.03 847 25.01 1.5 34.7 89 -0.2 31.7
02:30 1017 30.03 847 25.01 1.4 34.5 89 -0.2 31.7
02:35 1017 30.03 847 25.01 1.4 34.5 89 -0.2 31.7
02:40 1017 30.03 847 25.01 1.4 34.4 90 -0.2 31.7
02:45 1017 30.03 847 25.01 1.4 34.5 90 -0.1 31.8
02:50 1017 30.03 847 25.01 1.4 34.5 90 -0.1 31.9
02:55 1017 30.03 847 25.01 1.4 34.4 90 -0.2 31.7
03:00 1017 30.03 847 25.01 1.1 34 90 -0.3 31.4
03:05 1017 30.03 847 25.01 1 33.9 91 -0.3 31.4
03:10 1017 30.03 847 25.01 1 33.8 91 -0.4 31.4
03:15 1017 30.03 847 25.01 1.1 34 91 -0.2 31.6
03:20 1017 30.03 847 25.01 1.1 34 91 -0.2 31.6
03:25 1017 30.03 847 25.01 1.1 34 91 -0.2 31.6
03:30 1017 30.03 847 25.01 1.1 33.9 91 -0.2 31.6
03:35 1017 30.03 847 25.01 1 33.9 91 -0.2 31.6
03:40 1017 30.03 847 25.01 1 33.8 91 -0.2 31.6
03:45 1017 30.03 847 25.01 1 33.9 92 -0.2 31.7
03:50 1017 30.03 847 25.01 1.2 34.1 92 -0.1 31.9
03:55 1018 30.06 847 25.01 1.3 34.3 91 0 32
04:00 1018 30.06 847 25.01 1.3 34.4 91 -0 32
04:05 1018 30.06 847 25.01 1.3 34.4 91 -0 32
04:10 1018 30.06 847 25.01 1.4 34.5 90 -0 31.9
04:15 1018 30.06 847 25.01 1.6 34.8 89 -0 31.9
04:20 1018 30.06 847 25.01 1.7 35.1 88 -0 31.9
04:25 1018 30.06 847 25.01 1.7 35.1 88 -0 31.9
04:30 1018 30.06 847 25.01 1.6 34.8 88 -0.1 31.7
04:35 1018 30.06 847 25.01 1.4 34.5 89 -0.2 31.6
04:40 1018 30.06 847 25.01 1.4 34.5 88 -0.4 31.4
04:45 1018 30.06 847 25.01 1.7 35.1 84 -0.7 30.8
04:50 1018 30.06 847 25.01 2 35.7 84 -0.4 31.2
04:55 1018 30.06 847 25.01 2.1 35.8 82 -0.6 31
05:00 1018 30.06 847 25.01 2.1 35.9 82 -0.6 30.9
05:05 1018 30.06 847 25.01 2.1 35.9 83 -0.5 31.2
05:10 1018 30.06 847 25.01 2.1 35.7 82 -0.8 30.6
05:15 1018 30.06 847 25.01 2.2 35.9 81 -0.7 30.8
05:20 1018 30.06 847 25.01 2.1 35.7 83 -0.5 31.1
05:25 1018 30.06 847 25.01 1.7 35.1 85 -0.5 31.1
05:30 1018 30.06 847 25.01 1.4 34.5 87 -0.6 31
05:35 1018 30.06 847 25.01 1.2 34.2 88 -0.6 31
05:40 1018 30.06 847 25.01 1.1 34 89 -0.5 31.1
05:45 1018 30.06 847 25.01 1.2 34.1 89 -0.5 31.2
05:50 1018 30.06 847 25.01 1.3 34.4 88 -0.4 31.2
05:55 1018 30.06 847 25.01 1.5 34.8 87 -0.4 31.3
06:00 1018 30.06 847 25.01 1.6 34.8 87 -0.4 31.2
06:05 1018 30.06 848 25.04 1.6 34.9 86 -0.4 31.2
06:10 1018 30.06 848 25.04 1.6 35 85 -0.5 31
06:15 1018 30.06 848 25.04 1.7 35 85 -0.5 31.1
06:20 1018 30.06 848 25.04 1.7 35.1 85 -0.5 31.1
06:25 1018 30.06 848 25.04 1.7 35.1 82 -1 30.2
06:30 1018 30.06 848 25.04 1.9 35.5 80 -1.1 30
06:35 1019 30.09 848 25.04 2 35.6 80 -1.1 30.1
06:40 1019 30.09 848 25.04 2 35.7 80 -1 30.2
06:45 1019 30.09 848 25.04 1.9 35.4 81 -1.1 30
06:50 1019 30.09 848 25.04 1.8 35.2 81 -1.2 29.8
06:55 1019 30.09 848 25.04 1.8 35.2 80 -1.3 29.7
07:00 1019 30.09 848 25.04 1.8 35.2 80 -1.3 29.7
07:05 1019 30.09 848 25.04 1.8 35.3 80 -1.3 29.6
07:10 1019 30.09 848 25.04 1.9 35.5 79 -1.4 29.6
07:15 1019 30.09 848 25.04 2 35.7 78 -1.3 29.6
07:20 1019 30.09 848 25.04 2.1 35.7 79 -1.2 29.9
07:25 1019 30.09 848 25.04 2 35.6 79 -1.3 29.7
07:30 1019 30.09 848 25.04 2 35.7 79 -1.2 29.8
07:35 1019 30.09 848 25.04 2.1 35.8 78 -1.3 29.7
07:40 1019 30.09 848 25.04 2.1 35.7 79 -1.2 29.8
07:45 1019 30.09 848 25.04 2 35.7 79 -1.3 29.7
07:50 1019 30.09 848 25.04 2.2 35.9 77 -1.4 29.5
07:55 1019 30.09 848 25.04 2.4 36.3 77 -1.3 29.7
08:00 1019 30.09 848 25.04 2.5 36.4 77 -1.2 29.8
08:05 1019 30.09 848 25.04 2.5 36.5 76 -1.2 29.8
08:10 1019 30.09 848 25.04 2.6 36.6 77 -1.1 30
08:15 1019 30.09 849 25.07 2.6 36.6 77 -1.2 29.9
08:20 1019 30.09 849 25.07 2.5 36.5 77 -1.1 30
08:25 1019 30.09 849 25.07 2.4 36.3 83 -0.2 31.7
08:30 1019 30.09 849 25.07 1.7 35.1 86 -0.4 31.2
08:35 1020 30.12 849 25.07 1.6 34.9 86 -0.5 31.2
08:40 1020 30.12 849 25.07 1.7 35 85 -0.5 31.1
08:45 1020 30.12 849 25.07 1.7 35 86 -0.5 31.1
08:50 1020 30.12 849 25.07 1.7 35 85 -0.6 31
08:55 1020 30.12 849 25.07 1.8 35.3 84 -0.6 30.9
09:00 1020 30.12 849 25.07 2 35.6 83 -0.5 31.1
09:05 1020 30.12 849 25.07 2 35.7 83 -0.5 31
09:10 1020 30.12 849 25.07 2.2 36 83 -0.3 31.4
09:15 1020 30.12 849 25.07 2.4 36.3 82 -0.5 31.2
09:20 1020 30.12 849 25.07 2.3 36.1 81 -0.6 30.9
09:25 1020 30.12 849 25.07 2.4 36.4 81 -0.6 31
09:30 1020 30.12 849 25.07 3.2 37.7 78 -0.3 31.4
09:35 1020 30.12 849 25.07 2.9 37.2 79 -0.4 31.3
09:40 1020 30.12 849 25.07 2.9 37.3 79 -0.4 31.3
09:45 1020 30.12 849 25.07 2.7 36.9 80 -0.4 31.4
09:50 1020 30.12 849 25.07 2.5 36.6 82 -0.2 31.6
09:55 1020 30.12 849 25.07 2.6 36.6 82 -0.2 31.6
10:00 1020 30.12 849 25.07 2.6 36.6 81 -0.4 31.3
10:05 1020 30.12 849 25.07 2.8 37 79 -0.5 31.2
10:10 1020 30.12 849 25.07 2.9 37.3 80 -0.2 31.6
10:15 1020 30.12 849 25.07 3.3 37.9 78 -0.3 31.5
10:20 1020 30.12 849 25.07 3.8 38.9 74 -0.3 31.4
10:25 1020 30.12 849 25.07 4 39.1 75 -0.1 31.9
10:30 1020 30.12 849 25.07 4 39.1 75 -0 31.9
10:35 1020 30.12 849 25.07 4.5 40.2 73 0 32.1
10:40 1020 30.12 849 25.07 4.5 40.1 72 -0 31.9
10:45 1020 30.12 849 25.07 4.1 39.3 75 -0 32
10:50 1020 30.12 849 25.07 4.3 39.7 72 -0.2 31.6
10:55 1020 30.12 849 25.07 4.4 40 74 0.1 32.2
11:00 1020 30.12 849 25.07 4.2 39.5 74 -0 31.9
11:05 1020 30.12 849 25.07 4.2 39.6 75 0.2 32.3
11:10 1020 30.12 849 25.07 4.6 40.2 73 0.2 32.4
11:15 1020 30.12 849 25.07 4.5 40.2 75 0.4 32.8
11:20 1020 30.12 849 25.07 4.3 39.7 76 0.4 32.6
11:25 1020 30.12 849 25.07 4.6 40.3 72 -0 31.9
11:30 1020 30.12 849 25.07 5.2 41.4 70 0.2 32.3
11:35 1020 30.12 849 25.07 5.8 42.5 66 -0.1 31.9
11:40 1020 30.12 850 25.1 6.1 43 61 -0.8 30.5
11:45 1020 30.12 850 25.1 6.6 43.9 58 -1.1 30
11:50 1020 30.12 850 25.1 7 44.6 54 -1.6 29.1
11:55 1020 30.12 850 25.1 6.9 44.4 56 -1.3 29.6
12:00 1020 30.12 850 25.1 7 44.6 58 -0.6 30.9
12:05 1020 30.12 849 25.07 6.2 43.2 62 -0.4 31.2
12:10 1020 30.12 849 25.07 6.5 43.7 62 -0.1 31.8
12:15 1020 30.12 849 25.07 6.1 43 60 -1.1 30
12:20 1020 30.12 849 25.07 6.8 44.2 56 -1.3 29.7
12:25 1020 30.12 849 25.07 6.1 42.9 57 -1.7 29
12:30 1020 30.12 849 25.07 6.5 43.7 57 -1.5 29.3
12:35 1020 30.12 849 25.07 6.1 43 59 -1.3 29.7
12:40 1020 30.12 849 25.07 5.5 41.9 58 -2.1 28.2
12:45 1020 30.12 849 25.07 5.8 42.4 58 -1.9 28.5
12:50 1020 30.12 849 25.07 6.2 43.1 56 -2 28.4
12:55 1020 30.12 849 25.07 6.7 44 55 -1.6 29
13:00 1020 30.12 849 25.07 5.7 42.3 59 -1.7 29
13:05 1020 30.12 849 25.07 5.7 42.2 60 -1.4 29.4
13:10 1020 30.12 849 25.07 6 42.8 56 -2.1 28.1
13:15 1020 30.12 849 25.07 6.4 43.4 53 -2.4 27.7
13:20 1020 30.12 849 25.07 6.5 43.7 53 -2.5 27.6
13:25 1020 30.12 849 25.07 7 44.6 50 -2.7 27.2
13:30 1020 30.12 849 25.07 6.9 44.4 50 -2.7 27.2
13:35 1020 30.12 849 25.07 6.9 44.4 52 -2.1 28.1
13:40 1020 30.12 849 25.07 6.9 44.4 52 -2.3 27.9
13:45 1020 30.12 849 25.07 6.8 44.2 52 -2.3 27.9
13:50 1020 30.12 849 25.07 6.9 44.4 51 -2.4 27.6
13:55 1020 30.12 849 25.07 7 44.6 50 -2.8 27
14:00 1020 30.12 849 25.07 6.9 44.4 50 -2.9 26.7
14:05 1020 30.12 849 25.07 6.9 44.4 50 -2.8 27
14:10 1020 30.12 849 25.07 7 44.6 49 -2.9 26.7
14:15 1020 30.12 849 25.07 7.1 44.8 47 -3.3 26.1
14:20 1020 30.12 849 25.07 7.1 44.7 48 -3.3 26.1
14:25 1020 30.12 849 25.07 7 44.6 49 -3.1 26.5
14:30 1020 30.12 849 25.07 7.1 44.8 49 -3 26.6
14:35 1020 30.12 849 25.07 7.3 45.1 47 -3.4 25.9
14:40 1020 30.12 849 25.07 7.4 45.3 47 -3.1 26.4
14:45 1020 30.12 849 25.07 7.6 45.7 47 -3 26.6
14:50 1020 30.12 849 25.07 7.8 46 43 -3.9 25
14:55 1020 30.12 849 25.07 8 46.3 45 -3.3 26
15:00 1020 30.12 849 25.07 8.1 46.6 43 -3.6 25.5
15:05 1020 30.12 849 25.07 8 46.4 47 -2.7 27.1
15:10 1020 30.12 849 25.07 8.2 46.8 42 -3.8 25.2
15:15 1020 30.12 849 25.07 8.2 46.8 45 -2.9 26.8
15:20 1020 30.12 849 25.07 8.1 46.7 43 -3.8 25.2
15:25 1020 30.12 849 25.07 8.1 46.5 43 -3.7 25.3
15:30 1020 30.12 849 25.07 8.2 46.8 41 -4.2 24.4
15:35 1020 30.12 849 25.07 7.5 45.5 45 -3.6 25.5
15:40 1020 30.12 849 25.07 7.7 45.8 47 -3 26.6
15:45 1019 30.09 849 25.07 7.6 45.6 48 -2.7 27.2
15:50 1019 30.09 849 25.07 7.4 45.3 48 -3 26.5
15:55 1019 30.09 849 25.07 7.8 46 47 -2.8 27
16:00 1019 30.09 849 25.07 8 46.4 47 -2.6 27.4
16:05 1019 30.09 849 25.07 8.9 48 43 -2.9 26.9
16:10 1019 30.09 849 25.07 9.2 48.6 32 -6.6 20.1
16:15 1019 30.09 849 25.07 8.9 48 32 -6.7 19.9
16:20 1019 30.09 849 25.07 9.2 48.6 31 -6.9 19.5
16:25 1019 30.09 849 25.07 9.3 48.7 32 -6.6 20.2
16:30 1019 30.09 849 25.07 8.5 47.2 34 -6.6 20.1
16:35 1019 30.09 849 25.07 8.7 47.6 32 -7.2 19
16:40 1019 30.09 849 25.07 9.1 48.4 34 -6.1 21
16:45 1019 30.09 849 25.07 9.3 48.8 31 -6.8 19.7
16:50 1019 30.09 849 25.07 8.8 47.9 34 -6 21.1
16:55 1019 30.09 849 25.07 8.8 47.9 35 -5.7 21.7
17:00 1019 30.09 849 25.07 8.7 47.7 36 -5.5 22.2
17:05 1019 30.09 849 25.07 8.8 47.8 35 -5.8 21.5
17:10 1019 30.09 849 25.07 9 48.1 33 -6.5 20.2
17:15 1019 30.09 848 25.04 9 48.3 32 -6.8 19.7
17:20 1019 30.09 848 25.04 8.7 47.7 33 -6.8 19.8
17:25 1019 30.09 848 25.04 8.6 47.4 34 -6.5 20.3
17:30 1019 30.09 848 25.04 8.5 47.3 33 -6.9 19.5
17:35 1019 30.09 848 25.04 8.7 47.6 34 -6.3 20.6
17:40 1019 30.09 848 25.04 8.8 47.8 34 -6 21.1
17:45 1019 30.09 848 25.04 8.9 48 35 -5.8 21.5
17:50 1019 30.09 848 25.04 8.7 47.6 34 -6.4 20.4
17:55 1019 30.09 848 25.04 8.3 47 39 -4.7 23.5
18:00 1019 30.09 848 25.04 8.3 46.9 36 -5.8 21.5
18:05 1019 30.09 848 25.04 8.1 46.6 40 -4.6 23.7
18:10 1019 30.09 848 25.04 7.8 46 42 -4.3 24.3
18:15 1019 30.09 848 25.04 7.7 45.9 43 -4.1 24.7
18:20 1019 30.09 848 25.04 7.7 45.9 44 -3.8 25.1
18:25 1019 30.09 848 25.04 7.6 45.7 48 -2.7 27.2
18:30 1019 30.09 848 25.04 7.3 45.1 51 -2.2 28.1
18:35 1019 30.09 848 25.04 6.9 44.5 53 -1.9 28.6
18:40 1019 30.09 848 25.04 6.6 43.9 55 -1.7 28.9
18:45 1019 30.09 848 25.04 6.2 43.2 59 -1.2 29.8
18:50 1019 30.09 848 25.04 5.8 42.5 63 -0.7 30.8
18:55 1019 30.09 848 25.04 5.4 41.7 67 -0.2 31.6
19:00 1019 30.09 848 25.04 5 40.9 70 0 32
19:05 1019 30.09 848 25.04 4.6 40.3 72 -0 31.9
19:10 1019 30.09 848 25.04 4.3 39.8 73 -0.1 31.8
19:15 1019 30.09 848 25.04 4 39.2 75 -0 31.9
19:20 1019 30.09 848 25.04 3.8 38.8 74 -0.4 31.4
19:25 1019 30.09 848 25.04 3.7 38.6 75 -0.4 31.3
19:30 1019 30.09 848 25.04 3.3 38 75 -0.7 30.8
19:35 1019 30.09 848 25.04 2.8 37 76 -1.1 30.1
19:40 1019 30.09 848 25.04 2.6 36.6 76 -1.3 29.7
19:45 1019 30.09 848 25.04 2.5 36.4 75 -1.4 29.4
19:50 1019 30.09 848 25.04 2.4 36.3 76 -1.4 29.4
19:55 1019 30.09 848 25.04 2.3 36.2 76 -1.4 29.4
20:00 1019 30.09 848 25.04 2.4 36.3 76 -1.4 29.5
20:05 1019 30.09 848 25.04 2.3 36.2 77 -1.4 29.6
20:10 1019 30.09 848 25.04 2.3 36.2 77 -1.3 29.7
20:15 1019 30.09 848 25.04 2.3 36.2 76 -1.4 29.5
20:20 1019 30.09 848 25.04 2.4 36.3 76 -1.4 29.6
20:25 1019 30.09 848 25.04 2.3 36.1 77 -1.3 29.7
20:30 1019 30.09 848 25.04 2.2 36 77 -1.4 29.4
20:35 1019 30.09 848 25.04 2.2 36 76 -1.5 29.3
20:40 1019 30.09 848 25.04 2.4 36.3 75 -1.6 29.1
20:45 1019 30.09 848 25.04 2.5 36.5 74 -1.6 29.2
20:50 1019 30.09 848 25.04 2.5 36.5 74 -1.7 29
20:55 1019 30.09 848 25.04 2.6 36.7 74 -1.6 29.1
21:00 1019 30.09 848 25.04 2.4 36.4 74 -1.7 29
21:05 1019 30.09 848 25.04 2.3 36.2 75 -1.6 29.1
21:10 1019 30.09 848 25.04 2.3 36.1 75 -1.7 29
21:15 1019 30.09 848 25.04 2.2 36 75 -1.7 29
21:20 1019 30.09 848 25.04 2.2 35.9 75 -1.7 28.9
21:25 1019 30.09 848 25.04 2.2 36 75 -1.8 28.8
21:30 1018 30.06 848 25.04 2.3 36.1 74 -1.9 28.6
21:35 1019 30.09 848 25.04 2.5 36.4 74 -1.7 28.9
21:40 1019 30.09 848 25.04 2.5 36.5 73 -1.9 28.5
21:45 1019 30.09 848 25.04 2.5 36.5 73 -1.8 28.7
21:50 1018 30.06 848 25.04 2.5 36.6 72 -2 28.4
21:55 1018 30.06 848 25.04 2.7 36.8 71 -2 28.3
22:00 1018 30.06 848 25.04 2.7 36.8 72 -1.9 28.6
22:05 1018 30.06 848 25.04 2.6 36.7 71 -2.1 28.1
22:10 1018 30.06 848 25.04 2.7 36.8 72 -1.9 28.5
22:15 1018 30.06 848 25.04 2.7 36.9 70 -2.1 28.2
22:20 1018 30.06 848 25.04 2.7 36.9 71 -2.1 28.2
22:25 1018 30.06 848 25.04 2.8 37 70 -2.1 28.2
22:30 1018 30.06 848 25.04 2.9 37.1 69 -2.3 27.8
22:35 1018 30.06 847 25.01 2.9 37.2 70 -2 28.3
22:40 1018 30.06 847 25.01 2.9 37.2 70 -2 28.5
22:45 1018 30.06 847 25.01 2.8 37.1 71 -2 28.4
22:50 1018 30.06 847 25.01 2.8 37.1 70 -2.1 28.2
22:55 1018 30.06 847 25.01 2.9 37.3 70 -2 28.4
23:00 1018 30.06 847 25.01 2.9 37.2 70 -2.1 28.2
23:05 1018 30.06 847 25.01 3 37.4 68 -2.2 28
23:10 1018 30.06 847 25.01 3 37.5 69 -2 28.3
23:15 1018 30.06 847 25.01 3 37.4 68 -2.3 27.9
23:20 1018 30.06 847 25.01 3.1 37.6 68 -2.2 28
23:25 1018 30.06 847 25.01 3.2 37.7 68 -2.1 28.3
23:30 1018 30.06 847 25.01 3.2 37.8 69 -2 28.5
23:35 1018 30.06 847 25.01 3.2 37.8 69 -1.9 28.6
23:40 1018 30.06 847 25.01 3.3 37.9 66 -2.5 27.5
23:45 1018 30.06 847 25.01 3.6 38.4 66 -2.2 28.1
23:50 1018 30.06 847 25.01 3.5 38.3 67 -2.1 28.2
23:55 1018 30.06 847 25.01 3.5 38.4 67 -2 28.4
24:00 1017 30.03 847 25.01 3.5 38.4 69 -1.7 29